TimePDT,TemperatureF,Dew PointF,Humidity,Sea Level PressureIn,VisibilityMPH,Wind Direction,Wind SpeedMPH,Gust SpeedMPH,PrecipitationIn,Events,Conditions,WindDirDegrees,DateUTC
12:53 AM,51.1,48.9,92,29.96,10.0,Calm,Calm,-,N/A,,Clear,0,2012-09-28 07:53:00
1:53 AM,53.1,48.9,86,29.96,10.0,Calm,Calm,-,N/A,,Clear,0,2012-09-28 08:53:00
2:53 AM,52.0,48.0,86,29.95,9.0,Calm,Calm,-,N/A,,Clear,0,2012-09-28 09:53:00
3:53 AM,51.1,48.0,89,29.95,9.0,Calm,Calm,-,N/A,,Clear,0,2012-09-28 10:53:00
4:53 AM,52.0,48.0,86,29.95,10.0,Calm,Calm,-,N/A,,Clear,0,2012-09-28 11:53:00
5:53 AM,52.0,48.0,86,29.95,10.0,Calm,Calm,-,N/A,,Clear,0,2012-09-28 12:53:00
6:53 AM,51.1,48.0,89,29.96,10.0,Calm,Calm,-,N/A,,Clear,0,2012-09-28 13:53:00
7:53 AM,52.0,48.9,89,29.96,7.0,Calm,Calm,-,N/A,,Clear,0,2012-09-28 14:53:00
8:53 AM,54.0,50.0,86,29.98,7.0,ESE,3.5,-,N/A,,Clear,110,2012-09-28 15:53:00
9:53 AM,55.0,51.1,86,29.98,10.0,ESE,5.8,-,N/A,,Clear,120,2012-09-28 16:53:00
10:53 AM,61.0,51.1,70,29.99,10.0,Variable,4.6,-,N/A,,Clear,0,2012-09-28 17:53:00
11:53 AM,59.0,50.0,72,29.99,10.0,ESE,5.8,-,N/A,,Clear,110,2012-09-28 18:53:00
12:53 PM,62.1,50.0,65,29.99,10.0,ESE,8.1,-,N/A,,Scattered Clouds,120,2012-09-28 19:53:00
1:53 PM,60.1,51.1,72,29.99,10.0,ESE,5.8,-,N/A,,Mostly Cloudy,120,2012-09-28 20:53:00
2:53 PM,60.1,52.0,75,29.98,10.0,ESE,6.9,-,N/A,,Mostly Cloudy,120,2012-09-28 21:53:00
3:53 PM,60.1,53.1,78,29.98,10.0,NE,3.5,-,N/A,,Overcast,40,2012-09-28 22:53:00
4:53 PM,59.0,52.0,78,29.98,10.0,Calm,Calm,-,N/A,,Mostly Cloudy,0,2012-09-28 23:53:00
5:53 PM,57.0,52.0,83,29.98,10.0,Calm,Calm,-,N/A,,Mostly Cloudy,0,2012-09-29 00:53:00
6:53 PM,60.1,51.1,72,29.99,10.0,Calm,Calm,-,N/A,,Overcast,0,2012-09-29 01:53:00
7:53 PM,57.9,51.1,78,29.99,10.0,Calm,Calm,-,N/A,,Overcast,0,2012-09-29 02:53:00
8:53 PM,53.1,48.9,86,30.00,10.0,Calm,Calm,-,N/A,,Partly Cloudy,0,2012-09-29 03:53:00
9:53 PM,53.1,50.0,89,30.01,10.0,Calm,Calm,-,N/A,,Mostly Cloudy,0,2012-09-29 04:53:00
10:53 PM,55.0,51.1,86,30.02,6.0,Calm,Calm,-,N/A,,Overcast,0,2012-09-29 05:53:00
11:53 PM,52.0,50.0,93,30.03,10.0,Calm,Calm,-,N/A,,Overcast,0,2012-09-29 06:53:00